createdAt,value
2022-12-31T00:01:27.486Z,98080.84
2022-12-31T00:03:56.553Z,98080.16
2022-12-31T00:06:27.904Z,98081.73
2022-12-31T00:08:57.670Z,98081.05
2022-12-31T00:11:27.592Z,98085.95
2022-12-31T00:13:55.946Z,98091.53
2022-12-31T00:16:39.201Z,98091.14
2022-12-31T00:19:09.892Z,98091.12
2022-12-31T00:21:38.580Z,98099.40
2022-12-31T00:24:07.222Z,98105.09
2022-12-31T00:26:36.009Z,98106.39
2022-12-31T00:29:05.157Z,98110.95
2022-12-31T00:31:35.850Z,98112.20
2022-12-31T00:34:04.816Z,98110.30
2022-12-31T00:36:38.236Z,98117.10
2022-12-31T00:39:08.449Z,98115.11
2022-12-31T00:41:36.458Z,98112.17
2022-12-31T00:44:04.360Z,98112.83
2022-12-31T00:46:32.481Z,98113.54
2022-12-31T00:49:00.446Z,98119.53
2022-12-31T00:51:28.524Z,98121.20
2022-12-31T00:53:57.408Z,98117.11
2022-12-31T00:56:28.584Z,98113.96
2022-12-31T00:58:56.951Z,98113.13
2022-12-31T01:01:30.455Z,98111.55
2022-12-31T01:04:04.738Z,98113.19
2022-12-31T01:06:32.762Z,98113.14
2022-12-31T01:09:00.782Z,98115.98
2022-12-31T01:11:29.598Z,98116.28
2022-12-31T01:14:01.678Z,98115.27
2022-12-31T01:16:31.325Z,98116.23
2022-12-31T01:19:01.025Z,98118.66
2022-12-31T01:21:29.787Z,98116.88
2022-12-31T01:23:59.451Z,98121.25
2022-12-31T01:26:28.624Z,98118.77
2022-12-31T01:28:56.648Z,98118.08
2022-12-31T01:31:24.938Z,98120.04
2022-12-31T01:33:53.222Z,98123.25
2022-12-31T01:36:26.218Z,98121.96
2022-12-31T01:38:56.913Z,98119.77
2022-12-31T01:41:28.195Z,98116.35
2022-12-31T01:44:15.971Z,98112.45
2022-12-31T01:46:53.426Z,98115.33
2022-12-31T01:49:35.397Z,98118.61
2022-12-31T01:52:16.519Z,98122.33
2022-12-31T01:54:49.683Z,98120.70
2022-12-31T01:57:17.780Z,98123.37
2022-12-31T01:59:46.175Z,98118.45
2022-12-31T02:02:16.031Z,98113.10
2022-12-31T02:04:44.057Z,98116.20
2022-12-31T02:07:12.925Z,98122.14
2022-12-31T02:09:42.238Z,98126.06
2022-12-31T02:12:10.698Z,98129.58
2022-12-31T02:14:48.589Z,98126.67
2022-12-31T02:17:31.811Z,98125.46
2022-12-31T02:20:31.915Z,98125.35
2022-12-31T02:23:38.283Z,98123.56
2022-12-31T02:26:08.913Z,98130.00
2022-12-31T02:29:04.784Z,98131.02
2022-12-31T02:31:58.272Z,98131.35
2022-12-31T02:34:26.070Z,98131.17
2022-12-31T02:36:57.094Z,98130.30
2022-12-31T02:39:25.640Z,98130.00
2022-12-31T02:41:54.085Z,98132.81
2022-12-31T02:44:25.400Z,98131.25
2022-12-31T02:47:05.403Z,98132.63
2022-12-31T02:50:07.006Z,98133.30
2022-12-31T02:52:57.999Z,98136.35
2022-12-31T02:55:49.060Z,98135.02
2022-12-31T02:58:52.542Z,98138.77
2022-12-31T03:01:45.675Z,98139.26
2022-12-31T03:04:32.898Z,98133.38
2022-12-31T03:07:09.822Z,98133.90
2022-12-31T03:09:38.792Z,98131.04
2022-12-31T03:12:27.716Z,98135.16
2022-12-31T03:14:55.714Z,98134.23
2022-12-31T03:17:23.988Z,98130.25
2022-12-31T03:20:14.852Z,98128.94
2022-12-31T03:22:43.985Z,98132.23
2022-12-31T03:25:38.042Z,98128.56
2022-12-31T03:28:07.979Z,98135.26
2022-12-31T03:30:38.681Z,98131.61
2022-12-31T03:33:08.038Z,98131.98
2022-12-31T03:35:38.270Z,98132.90
2022-12-31T03:38:06.305Z,98137.73
2022-12-31T03:40:39.754Z,98133.39
2022-12-31T03:43:07.805Z,98131.86
2022-12-31T03:45:35.945Z,98142.44
2022-12-31T03:48:05.859Z,98153.94
2022-12-31T03:50:34.483Z,98165.26
2022-12-31T03:53:02.436Z,98169.30
2022-12-31T03:55:30.321Z,98164.65
2022-12-31T03:57:58.405Z,98168.91
2022-12-31T04:00:26.538Z,98158.66
2022-12-31T04:02:54.433Z,98157.27
2022-12-31T04:05:22.916Z,98166.04
2022-12-31T04:07:52.234Z,98168.82
2022-12-31T04:10:20.657Z,98177.73
2022-12-31T04:12:48.631Z,98174.95
2022-12-31T04:15:19.725Z,98173.23
2022-12-31T04:17:48.536Z,98172.87
2022-12-31T04:20:16.942Z,98171.63
2022-12-31T04:22:44.991Z,98174.35
2022-12-31T04:25:13.037Z,98179.09
2022-12-31T04:27:43.904Z,98181.45
2022-12-31T04:30:13.248Z,98182.60
2022-12-31T04:32:41.611Z,98185.21
2022-12-31T04:35:10.722Z,98185.59
2022-12-31T04:37:39.254Z,98186.31
2022-12-31T04:40:10.957Z,98189.20
2022-12-31T04:42:39.025Z,98184.81
2022-12-31T04:45:07.799Z,98189.31
2022-12-31T04:47:35.679Z,98190.20
2022-12-31T04:50:04.239Z,98186.12
2022-12-31T04:52:37.066Z,98181.10
2022-12-31T04:55:08.577Z,98177.48
2022-12-31T04:57:36.413Z,98190.14
2022-12-31T05:00:04.489Z,98203.73
2022-12-31T05:02:32.487Z,98201.45
2022-12-31T05:05:00.719Z,98196.59
2022-12-31T05:07:28.629Z,98198.61
2022-12-31T05:09:56.575Z,98201.55
2022-12-31T05:12:24.419Z,98201.37
2022-12-31T05:14:52.241Z,98202.60
2022-12-31T05:17:21.113Z,98201.26
2022-12-31T05:19:49.048Z,98197.48
2022-12-31T05:22:31.902Z,98197.14
2022-12-31T05:25:00.982Z,98202.75
2022-12-31T05:27:33.373Z,98211.01
2022-12-31T05:30:01.256Z,98212.80
2022-12-31T05:32:29.156Z,98210.30
2022-12-31T05:34:59.848Z,98213.31
2022-12-31T05:37:29.093Z,98216.66
2022-12-31T05:39:57.715Z,98203.45
2022-12-31T05:42:26.334Z,98193.52
2022-12-31T05:44:54.264Z,98207.42
2022-12-31T05:47:22.225Z,98220.40
2022-12-31T05:49:50.311Z,98222.15
2022-12-31T05:52:18.720Z,98219.33
2022-12-31T05:54:46.650Z,98222.63
2022-12-31T05:57:14.984Z,98224.98
2022-12-31T05:59:42.832Z,98223.20
2022-12-31T06:02:10.624Z,98223.36
2022-12-31T06:04:38.554Z,98226.45
2022-12-31T06:07:06.536Z,98224.15
2022-12-31T06:09:34.395Z,98216.10
2022-12-31T06:12:02.209Z,98216.86
2022-12-31T06:14:30.211Z,98224.14
2022-12-31T06:16:58.186Z,98231.84
2022-12-31T06:19:26.243Z,98229.77
2022-12-31T06:21:54.185Z,98232.84
2022-12-31T06:24:21.985Z,98234.94
2022-12-31T06:26:49.901Z,98237.98
2022-12-31T06:29:18.112Z,98244.80
2022-12-31T06:31:46.055Z,98250.82
2022-12-31T06:34:13.905Z,98249.52
2022-12-31T06:36:42.556Z,98252.50
2022-12-31T06:39:10.358Z,98254.09
2022-12-31T06:41:38.222Z,98258.27
2022-12-31T06:44:06.655Z,98256.79
2022-12-31T06:46:34.657Z,98254.25
2022-12-31T06:49:02.801Z,98249.52
2022-12-31T06:51:30.930Z,98253.11
2022-12-31T06:53:58.876Z,98257.61
2022-12-31T06:56:34.736Z,98262.24
2022-12-31T06:59:05.044Z,98265.66
2022-12-31T07:02:00.855Z,98266.10
2022-12-31T07:04:42.721Z,98267.73
2022-12-31T07:07:44.335Z,98267.77
2022-12-31T07:10:44.222Z,98265.36
2022-12-31T07:13:25.727Z,98267.13
2022-12-31T07:16:02.825Z,98274.04
2022-12-31T07:18:35.849Z,98276.43
2022-12-31T07:21:04.078Z,98279.27
2022-12-31T07:23:32.210Z,98283.06
2022-12-31T07:26:13.586Z,98285.27
2022-12-31T07:29:07.274Z,98288.89
2022-12-31T07:31:58.912Z,98289.45
2022-12-31T07:34:45.223Z,98293.45
2022-12-31T07:37:22.115Z,98291.20
2022-12-31T07:39:58.725Z,98288.71
2022-12-31T07:42:44.632Z,98291.75
2022-12-31T07:45:32.691Z,98285.58
2022-12-31T07:48:02.967Z,98285.77
2022-12-31T07:50:31.245Z,98286.88
2022-12-31T07:52:59.407Z,98294.16
2022-12-31T07:55:27.406Z,98298.98
2022-12-31T07:58:10.846Z,98301.70
2022-12-31T08:00:39.118Z,98302.77
2022-12-31T08:03:42.276Z,98301.30
2022-12-31T08:06:16.210Z,98292.55
2022-12-31T08:08:54.171Z,98287.14
2022-12-31T08:11:44.028Z,98295.23
2022-12-31T08:14:15.101Z,98299.27
2022-12-31T08:16:43.282Z,98298.98
2022-12-31T08:19:25.655Z,98301.66
2022-12-31T08:22:24.906Z,98302.54
2022-12-31T08:25:13.167Z,98302.69
2022-12-31T08:27:59.799Z,98301.80
2022-12-31T08:30:37.252Z,98308.34
2022-12-31T08:33:16.458Z,98312.73
2022-12-31T08:36:11.403Z,98315.48
2022-12-31T08:39:18.543Z,98317.59
2022-12-31T08:41:49.827Z,98322.96
2022-12-31T08:44:32.422Z,98321.77
2022-12-31T08:47:18.323Z,98317.70
2022-12-31T08:49:46.483Z,98314.02
2022-12-31T08:52:24.524Z,98311.17
2022-12-31T08:54:53.303Z,98323.31
2022-12-31T08:57:42.608Z,98321.70
2022-12-31T09:00:19.174Z,98316.10
2022-12-31T09:03:06.060Z,98309.96
2022-12-31T09:05:49.938Z,98304.36
2022-12-31T09:08:17.828Z,98305.65
2022-12-31T09:11:08.303Z,98303.49
2022-12-31T09:13:54.447Z,98302.20
2022-12-31T09:16:28.495Z,98300.45
2022-12-31T09:18:56.528Z,98306.10
2022-12-31T09:21:24.646Z,98307.73
2022-12-31T09:23:52.751Z,98309.42
2022-12-31T09:26:45.685Z,98308.90
2022-12-31T09:29:43.722Z,98305.00
2022-12-31T09:33:01.798Z,98297.65
2022-12-31T09:36:03.725Z,98294.38
2022-12-31T09:38:59.623Z,98299.99
2022-12-31T09:41:42.824Z,98301.42
2022-12-31T09:44:32.172Z,98296.94
2022-12-31T09:47:25.129Z,98295.40
2022-12-31T09:50:21.087Z,98298.14
2022-12-31T09:53:32.627Z,98292.52
2022-12-31T09:56:10.715Z,98288.51
2022-12-31T09:59:02.651Z,98287.72
2022-12-31T10:01:47.030Z,98281.27
2022-12-31T10:04:40.950Z,98283.98
2022-12-31T10:07:27.293Z,98284.38
2022-12-31T10:10:05.494Z,98284.61
2022-12-31T10:12:39.411Z,98280.52
2022-12-31T10:15:28.367Z,98279.34
2022-12-31T10:18:20.637Z,98279.16
2022-12-31T10:21:07.028Z,98278.55
2022-12-31T10:24:02.622Z,98272.59
2022-12-31T10:27:09.049Z,98275.71
2022-12-31T10:30:02.137Z,98272.41
2022-12-31T10:32:36.676Z,98267.80
2022-12-31T10:35:26.457Z,98269.38
2022-12-31T10:38:09.666Z,98274.45
2022-12-31T10:41:11.179Z,98271.45
2022-12-31T10:43:50.819Z,98270.55
2022-12-31T10:46:36.931Z,98269.89
2022-12-31T10:49:07.855Z,98269.42
2022-12-31T10:52:04.067Z,98276.92
2022-12-31T10:54:48.825Z,98280.35
2022-12-31T10:58:05.210Z,98277.23
2022-12-31T11:00:51.375Z,98260.70
2022-12-31T11:03:44.947Z,98260.63
2022-12-31T11:06:57.741Z,98254.33
2022-12-31T11:10:02.948Z,98242.60
2022-12-31T11:12:53.331Z,98236.00
2022-12-31T11:15:21.364Z,98245.02
2022-12-31T11:18:07.514Z,98240.82
2022-12-31T11:21:06.686Z,98235.24
2022-12-31T11:23:58.603Z,98236.70
2022-12-31T11:26:47.403Z,98232.80
2022-12-31T11:29:23.605Z,98241.31
2022-12-31T11:32:14.054Z,98234.29
2022-12-31T11:35:04.479Z,98230.48
2022-12-31T11:37:52.229Z,98229.57
2022-12-31T11:40:33.616Z,98231.83
2022-12-31T11:43:38.688Z,98242.39
2022-12-31T11:46:15.722Z,98244.67
2022-12-31T11:49:11.703Z,98237.13
2022-12-31T11:51:58.774Z,98230.42
2022-12-31T11:55:01.358Z,98225.31
2022-12-31T11:57:37.933Z,98219.13
2022-12-31T12:00:24.633Z,98217.70
2022-12-31T12:03:01.231Z,98217.64
2022-12-31T12:05:29.885Z,98216.38
2022-12-31T12:07:57.793Z,98214.06
2022-12-31T12:10:35.744Z,98214.17
2022-12-31T12:13:34.231Z,98218.63
2022-12-31T12:16:06.372Z,98220.43
2022-12-31T12:18:46.320Z,98223.61
2022-12-31T12:21:19.116Z,98225.48
2022-12-31T12:24:03.379Z,98226.67
2022-12-31T12:26:38.988Z,98232.44
2022-12-31T12:29:30.309Z,98237.21
2022-12-31T12:32:05.840Z,98237.89
2022-12-31T12:34:38.036Z,98237.68
2022-12-31T12:37:25.295Z,98236.67
2022-12-31T12:40:01.022Z,98234.45
2022-12-31T12:42:29.937Z,98240.02
2022-12-31T12:45:22.529Z,98243.30
2022-12-31T12:48:02.416Z,98240.52
2022-12-31T12:50:45.252Z,98241.21
2022-12-31T12:53:47.816Z,98241.42
2022-12-31T12:56:56.513Z,98244.98
2022-12-31T12:59:46.153Z,98244.75
2022-12-31T13:02:24.759Z,98250.65
2022-12-31T13:05:31.669Z,98256.16
2022-12-31T13:08:09.057Z,98259.09
2022-12-31T13:10:36.870Z,98261.67
2022-12-31T13:13:24.931Z,98266.38
2022-12-31T13:16:11.167Z,98267.51
2022-12-31T13:18:53.014Z,98268.79
2022-12-31T13:21:45.081Z,98274.21
2022-12-31T13:24:25.083Z,98274.48
2022-12-31T13:27:07.975Z,98272.33
2022-12-31T13:29:37.596Z,98275.81
2022-12-31T13:32:10.993Z,98282.08
2022-12-31T13:34:41.710Z,98281.25
2022-12-31T13:37:36.702Z,98281.95
2022-12-31T13:40:21.314Z,98282.96
2022-12-31T13:42:57.069Z,98277.40
2022-12-31T13:45:32.908Z,98270.35
2022-12-31T13:48:07.381Z,98267.36
2022-12-31T13:50:47.826Z,98264.47
2022-12-31T13:53:59.962Z,98267.39
2022-12-31T13:56:33.948Z,98273.82
2022-12-31T13:59:11.499Z,98274.75
2022-12-31T14:01:48.789Z,98276.83
2022-12-31T14:04:34.603Z,98286.08
2022-12-31T14:07:10.040Z,98284.13
2022-12-31T14:09:38.432Z,98279.95
2022-12-31T14:12:29.363Z,98283.98
2022-12-31T14:15:07.249Z,98285.36
2022-12-31T14:17:57.661Z,98290.71
2022-12-31T14:20:35.228Z,98298.42
2022-12-31T14:23:24.556Z,98296.69
2022-12-31T14:26:43.685Z,98291.60
2022-12-31T14:29:11.490Z,98293.25
2022-12-31T14:31:48.651Z,98290.51
2022-12-31T14:34:34.670Z,98288.13
2022-12-31T14:37:14.535Z,98286.61
2022-12-31T14:40:13.400Z,98288.04
2022-12-31T14:42:57.070Z,98286.31
2022-12-31T14:45:40.141Z,98284.23
2022-12-31T14:48:25.791Z,98278.14
2022-12-31T14:50:53.984Z,98276.92
2022-12-31T14:53:27.565Z,98276.96
2022-12-31T14:56:07.595Z,98276.70
2022-12-31T14:58:42.655Z,98274.89
2022-12-31T15:01:17.641Z,98281.15
2022-12-31T15:03:46.468Z,98278.83
2022-12-31T15:06:23.696Z,98279.29
2022-12-31T15:09:08.273Z,98281.95
2022-12-31T15:11:46.271Z,98280.69
2022-12-31T15:14:26.282Z,98287.23
2022-12-31T15:17:12.761Z,98288.51
2022-12-31T15:20:18.240Z,98288.36
2022-12-31T15:22:50.862Z,98285.84
2022-12-31T15:25:40.064Z,98284.92
2022-12-31T15:28:36.572Z,98290.19
2022-12-31T15:31:19.128Z,98288.23
2022-12-31T15:34:02.794Z,98283.48
2022-12-31T15:36:38.219Z,98289.52
2022-12-31T15:39:08.065Z,98292.70
2022-12-31T15:42:27.600Z,98296.15
2022-12-31T15:45:00.344Z,98312.19
2022-12-31T15:47:33.826Z,98323.45
2022-12-31T15:50:07.732Z,98325.63
2022-12-31T15:52:57.208Z,98330.25
2022-12-31T15:55:42.465Z,98329.23
2022-12-31T15:58:14.191Z,98328.30
2022-12-31T16:01:09.921Z,98324.30
2022-12-31T16:03:44.038Z,98325.10
2022-12-31T16:06:13.819Z,98328.02
2022-12-31T16:08:46.222Z,98325.90
2022-12-31T16:11:15.802Z,98326.52
2022-12-31T16:13:50.407Z,98325.98
2022-12-31T16:16:26.493Z,98329.82
2022-12-31T16:18:55.767Z,98334.19
2022-12-31T16:21:32.789Z,98335.33
2022-12-31T16:25:19.483Z,98329.23
2022-12-31T16:27:34.576Z,98330.48
2022-12-31T16:30:08.585Z,98333.88
2022-12-31T16:32:40.286Z,98332.75
2022-12-31T16:35:31.671Z,98331.86
2022-12-31T16:38:04.180Z,98340.80
2022-12-31T16:40:32.107Z,98353.71
2022-12-31T16:43:00.692Z,98357.61
2022-12-31T16:45:36.543Z,98357.55
2022-12-31T16:48:17.459Z,98353.73
2022-12-31T16:50:49.323Z,98356.05
2022-12-31T16:53:21.107Z,98360.81
2022-12-31T16:56:00.791Z,98365.87
2022-12-31T16:58:32.126Z,98370.56
2022-12-31T17:01:16.129Z,98370.29
2022-12-31T17:03:51.173Z,98367.59
2022-12-31T17:06:21.358Z,98372.71
2022-12-31T17:08:55.686Z,98371.89
2022-12-31T17:11:51.927Z,98370.38
2022-12-31T17:14:26.586Z,98372.92
2022-12-31T17:17:02.204Z,98375.83
2022-12-31T17:19:51.265Z,98380.79
2022-12-31T17:22:34.592Z,98377.77
2022-12-31T17:25:25.416Z,98371.46
2022-12-31T17:28:03.913Z,98368.69
2022-12-31T17:30:35.249Z,98383.80
2022-12-31T17:33:24.971Z,98385.08
2022-12-31T17:36:12.430Z,98389.77
2022-12-31T17:38:40.467Z,98394.13
2022-12-31T17:41:08.254Z,98394.81
2022-12-31T17:43:38.179Z,98403.44
2022-12-31T17:46:16.131Z,98401.21
2022-12-31T17:48:46.245Z,98404.12
2022-12-31T17:51:14.150Z,98408.40
2022-12-31T17:53:42.275Z,98411.77
2022-12-31T17:56:18.169Z,98413.31
2022-12-31T17:58:50.622Z,98407.42
2022-12-31T18:01:22.254Z,98407.70
2022-12-31T18:03:50.488Z,98409.36
2022-12-31T18:06:21.473Z,98410.23
2022-12-31T18:08:49.314Z,98403.11
2022-12-31T18:11:22.223Z,98394.48
2022-12-31T18:13:50.919Z,98391.10
2022-12-31T18:16:18.811Z,98387.23
2022-12-31T18:18:46.795Z,98388.73
2022-12-31T18:21:29.171Z,98385.36
2022-12-31T18:26:24.799Z,98380.54
2022-12-31T18:28:53.068Z,98378.61
2022-12-31T18:31:29.711Z,98378.25
2022-12-31T18:33:59.173Z,98367.38
2022-12-31T18:36:28.704Z,98360.79
2022-12-31T18:38:56.674Z,98361.75
2022-12-31T18:41:27.940Z,98361.52
2022-12-31T18:43:55.964Z,98372.23
2022-12-31T18:46:25.255Z,98371.10
2022-12-31T18:48:53.243Z,98368.83
2022-12-31T18:51:31.029Z,98369.85
2022-12-31T18:54:01.389Z,98370.43
2022-12-31T18:56:29.443Z,98375.42
2022-12-31T18:58:57.279Z,98379.77
2022-12-31T19:01:38.351Z,98379.92
2022-12-31T19:04:22.855Z,98382.91
2022-12-31T19:06:54.916Z,98385.59
2022-12-31T19:09:58.115Z,98381.80
2022-12-31T19:12:13.609Z,98378.88
2022-12-31T19:14:41.633Z,98373.47
2022-12-31T19:17:12.655Z,98375.35
2022-12-31T19:19:40.596Z,98369.33
2022-12-31T19:22:15.425Z,98369.65
2022-12-31T19:24:43.296Z,98369.22
2022-12-31T19:27:14.786Z,98373.20
2022-12-31T19:29:42.653Z,98374.05
2022-12-31T19:32:10.555Z,98374.17
2022-12-31T19:34:40.589Z,98373.40
2022-12-31T19:37:15.146Z,98375.57
2022-12-31T19:39:42.951Z,98376.13
2022-12-31T19:42:16.325Z,98371.36
2022-12-31T19:44:44.161Z,98370.64
2022-12-31T19:47:13.605Z,98368.17
2022-12-31T19:49:43.957Z,98370.02
2022-12-31T19:52:11.888Z,98367.23
2022-12-31T19:54:39.800Z,98372.63
2022-12-31T19:57:07.655Z,98380.05
2022-12-31T19:59:35.597Z,98378.63
2022-12-31T20:02:03.508Z,98378.11
2022-12-31T20:04:31.485Z,98376.48
2022-12-31T20:06:59.300Z,98378.90
2022-12-31T20:09:27.117Z,98378.39
2022-12-31T20:11:55.683Z,98379.89
2022-12-31T20:14:23.516Z,98382.52
2022-12-31T20:16:52.683Z,98384.84
2022-12-31T20:19:20.566Z,98383.76
2022-12-31T20:21:48.421Z,98380.14
2022-12-31T20:24:16.328Z,98379.86
2022-12-31T20:26:44.244Z,98380.45
2022-12-31T20:29:12.102Z,98374.44
2022-12-31T20:31:39.964Z,98375.17
2022-12-31T20:34:10.129Z,98382.30
2022-12-31T20:36:39.075Z,98385.52
2022-12-31T20:39:07.349Z,98387.95
2022-12-31T20:41:35.233Z,98387.36
2022-12-31T20:44:03.766Z,98384.58
2022-12-31T20:46:31.793Z,98384.61
2022-12-31T20:49:01.731Z,98383.46
2022-12-31T20:51:32.137Z,98383.95
2022-12-31T20:54:07.011Z,98383.15
2022-12-31T20:56:38.035Z,98386.31
2022-12-31T20:59:06.891Z,98385.73
2022-12-31T21:02:11.097Z,98388.80
2022-12-31T21:04:23.051Z,98396.10
2022-12-31T21:06:52.273Z,98400.17
2022-12-31T21:09:20.122Z,98401.34
2022-12-31T21:12:06.846Z,98402.86
2022-12-31T21:14:37.421Z,98409.86
2022-12-31T21:17:07.772Z,98408.09
2022-12-31T21:19:35.664Z,98407.88
2022-12-31T21:22:03.596Z,98408.88
2022-12-31T21:24:31.369Z,98413.45
2022-12-31T21:26:59.254Z,98417.00
2022-12-31T21:29:31.354Z,98418.45
2022-12-31T21:32:03.019Z,98420.91
2022-12-31T21:34:30.969Z,98431.41
2022-12-31T21:36:58.802Z,98440.52
2022-12-31T21:39:26.671Z,98437.88
2022-12-31T21:41:54.723Z,98435.09
2022-12-31T21:44:25.550Z,98438.55
2022-12-31T21:47:34.907Z,98443.40
2022-12-31T21:50:04.685Z,98446.73
2022-12-31T21:52:34.116Z,98449.75
2022-12-31T21:55:23.107Z,98449.20
2022-12-31T21:58:24.692Z,98450.45
2022-12-31T22:00:58.696Z,98447.15
2022-12-31T22:03:31.807Z,98452.83
2022-12-31T22:06:10.349Z,98454.08
2022-12-31T22:08:40.437Z,98456.08
2022-12-31T22:11:09.303Z,98456.99
2022-12-31T22:13:38.265Z,98451.34
2022-12-31T22:16:07.447Z,98452.02
2022-12-31T22:18:38.926Z,98457.68
2022-12-31T22:21:19.458Z,98461.12
2022-12-31T22:23:50.185Z,98460.75
2022-12-31T22:26:21.330Z,98459.27
2022-12-31T22:28:50.132Z,98459.09
2022-12-31T22:31:21.036Z,98463.17
2022-12-31T22:33:49.269Z,98468.35
2022-12-31T22:36:19.863Z,98475.28
2022-12-31T22:38:48.810Z,98472.30
2022-12-31T22:41:22.156Z,98467.73
2022-12-31T22:43:57.217Z,98461.98
2022-12-31T22:46:31.623Z,98463.56
2022-12-31T22:49:00.944Z,98463.34
2022-12-31T22:51:54.715Z,98458.41
2022-12-31T22:54:18.206Z,98461.81
2022-12-31T22:56:46.187Z,98464.56
2022-12-31T22:59:13.993Z,98463.89
2022-12-31T23:01:41.973Z,98463.80
2022-12-31T23:04:10.005Z,98473.80
2022-12-31T23:06:43.727Z,98477.00
2022-12-31T23:09:32.479Z,98474.70
2022-12-31T23:12:01.165Z,98471.69
2022-12-31T23:14:47.761Z,98469.50
2022-12-31T23:17:41.879Z,98471.34
2022-12-31T23:20:40.825Z,98471.33
2022-12-31T23:23:13.904Z,98470.98
2022-12-31T23:25:46.515Z,98469.39
2022-12-31T23:28:17.701Z,98468.51
2022-12-31T23:30:45.809Z,98472.53
2022-12-31T23:33:17.644Z,98477.63
2022-12-31T23:35:46.392Z,98478.80
2022-12-31T23:38:16.881Z,98481.67
2022-12-31T23:40:45.269Z,98486.02
2022-12-31T23:43:21.459Z,98493.15
2022-12-31T23:45:52.757Z,98493.11
2022-12-31T23:48:20.744Z,98498.36
2022-12-31T23:50:53.952Z,98503.95
2022-12-31T23:53:24.862Z,98507.23
2022-12-31T23:55:53.352Z,98499.93
2022-12-31T23:58:21.856Z,98505.97
